sensor_id;sensor_type;location;lat;lon;timestamp;P1;durP1;ratioP1;P2;durP2;ratioP2
10511;SDS011;5304;48.604;2.096;2022-09-20T00:02:14;4.77;;;2.13;;
10511;SDS011;5304;48.604;2.096;2022-09-20T00:04:59;3.47;;;2.00;;
10511;SDS011;5304;48.604;2.096;2022-09-20T00:07:43;1.87;;;1.70;;
10511;SDS011;5304;48.604;2.096;2022-09-20T00:10:28;3.37;;;1.90;;
10511;SDS011;5304;48.604;2.096;2022-09-20T00:13:14;6.30;;;2.17;;
10511;SDS011;5304;48.604;2.096;2022-09-20T00:15:59;5.90;;;1.90;;
10511;SDS011;5304;48.604;2.096;2022-09-20T00:18:52;4.77;;;1.93;;
10511;SDS011;5304;48.604;2.096;2022-09-20T00:21:37;2.10;;;1.90;;
10511;SDS011;5304;48.604;2.096;2022-09-20T00:24:22;9.20;;;2.10;;
10511;SDS011;5304;48.604;2.096;2022-09-20T00:27:06;5.77;;;2.00;;
10511;SDS011;5304;48.604;2.096;2022-09-20T00:29:50;1.90;;;1.70;;
10511;SDS011;5304;48.604;2.096;2022-09-20T00:32:36;4.30;;;2.10;;
10511;SDS011;5304;48.604;2.096;2022-09-20T00:35:21;5.40;;;2.27;;
10511;SDS011;5304;48.604;2.096;2022-09-20T00:38:05;2.83;;;2.00;;
10511;SDS011;5304;48.604;2.096;2022-09-20T00:40:49;5.50;;;2.03;;
10511;SDS011;5304;48.604;2.096;2022-09-20T00:43:35;2.57;;;2.07;;
10511;SDS011;5304;48.604;2.096;2022-09-20T00:49:25;2.17;;;1.90;;
10511;SDS011;5304;48.604;2.096;2022-09-20T00:52:11;4.50;;;1.80;;
10511;SDS011;5304;48.604;2.096;2022-09-20T00:54:56;6.77;;;1.90;;
10511;SDS011;5304;48.604;2.096;2022-09-20T00:57:42;3.53;;;2.20;;
10511;SDS011;5304;48.604;2.096;2022-09-20T01:00:29;4.53;;;1.97;;
10511;SDS011;5304;48.604;2.096;2022-09-20T01:03:15;4.63;;;2.33;;
10511;SDS011;5304;48.604;2.096;2022-09-20T01:06:05;3.37;;;2.10;;
10511;SDS011;5304;48.604;2.096;2022-09-20T01:08:52;3.77;;;2.27;;
10511;SDS011;5304;48.604;2.096;2022-09-20T01:11:40;3.37;;;2.50;;
10511;SDS011;5304;48.604;2.096;2022-09-20T01:14:25;4.13;;;2.37;;
10511;SDS011;5304;48.604;2.096;2022-09-20T01:17:09;2.93;;;1.90;;
10511;SDS011;5304;48.604;2.096;2022-09-20T01:19:59;2.73;;;1.73;;
10511;SDS011;5304;48.604;2.096;2022-09-20T01:28:45;3.63;;;2.43;;
10511;SDS011;5304;48.604;2.096;2022-09-20T01:31:33;2.43;;;2.20;;
10511;SDS011;5304;48.604;2.096;2022-09-20T01:34:34;4.77;;;2.30;;
10511;SDS011;5304;48.604;2.096;2022-09-20T01:37:31;1.80;;;1.70;;
10511;SDS011;5304;48.604;2.096;2022-09-20T01:46:35;3.67;;;1.70;;
10511;SDS011;5304;48.604;2.096;2022-09-20T02:17:10;4.93;;;1.80;;
10511;SDS011;5304;48.604;2.096;2022-09-20T02:26:05;3.30;;;1.80;;
10511;SDS011;5304;48.604;2.096;2022-09-20T02:47:34;5.53;;;1.80;;
10511;SDS011;5304;48.604;2.096;2022-09-20T02:56:32;4.37;;;1.77;;
10511;SDS011;5304;48.604;2.096;2022-09-20T03:02:23;4.53;;;1.77;;
10511;SDS011;5304;48.604;2.096;2022-09-20T03:08:13;3.97;;;2.20;;
10511;SDS011;5304;48.604;2.096;2022-09-20T03:17:29;2.93;;;1.90;;
10511;SDS011;5304;48.604;2.096;2022-09-20T03:27:06;5.60;;;1.47;;
10511;SDS011;5304;48.604;2.096;2022-09-20T03:29:55;2.40;;;1.63;;
10511;SDS011;5304;48.604;2.096;2022-09-20T03:33:01;4.27;;;1.50;;
10511;SDS011;5304;48.604;2.096;2022-09-20T04:02:45;4.73;;;1.87;;
10511;SDS011;5304;48.604;2.096;2022-09-20T04:20:56;3.57;;;1.97;;
10511;SDS011;5304;48.604;2.096;2022-09-20T04:26:57;4.63;;;1.50;;
10511;SDS011;5304;48.604;2.096;2022-09-20T04:30:39;1.70;;;1.60;;
10511;SDS011;5304;48.604;2.096;2022-09-20T04:33:12;5.57;;;1.97;;
10511;SDS011;5304;48.604;2.096;2022-09-20T04:39:32;1.90;;;1.37;;
10511;SDS011;5304;48.604;2.096;2022-09-20T05:10:49;4.50;;;2.03;;
10511;SDS011;5304;48.604;2.096;2022-09-20T05:20:08;2.30;;;1.70;;
10511;SDS011;5304;48.604;2.096;2022-09-20T05:23:27;2.07;;;1.83;;
10511;SDS011;5304;48.604;2.096;2022-09-20T05:29:39;1.67;;;1.57;;
10511;SDS011;5304;48.604;2.096;2022-09-20T05:41:40;2.77;;;1.70;;
10511;SDS011;5304;48.604;2.096;2022-09-20T05:47:58;2.37;;;1.80;;
10511;SDS011;5304;48.604;2.096;2022-09-20T05:50:59;3.10;;;1.70;;
10511;SDS011;5304;48.604;2.096;2022-09-20T05:56:47;5.47;;;1.93;;
10511;SDS011;5304;48.604;2.096;2022-09-20T06:09:14;3.17;;;1.97;;
10511;SDS011;5304;48.604;2.096;2022-09-20T06:18:33;3.20;;;2.17;;
10511;SDS011;5304;48.604;2.096;2022-09-20T06:21:49;2.87;;;2.00;;
10511;SDS011;5304;48.604;2.096;2022-09-20T06:24:38;3.30;;;2.10;;
10511;SDS011;5304;48.604;2.096;2022-09-20T06:27:31;6.47;;;2.17;;
10511;SDS011;5304;48.604;2.096;2022-09-20T06:30:30;2.43;;;2.23;;
10511;SDS011;5304;48.604;2.096;2022-09-20T06:33:27;4.57;;;2.27;;
10511;SDS011;5304;48.604;2.096;2022-09-20T06:36:16;4.27;;;2.67;;
10511;SDS011;5304;48.604;2.096;2022-09-20T06:43:12;4.70;;;2.87;;
10511;SDS011;5304;48.604;2.096;2022-09-20T06:45:57;5.50;;;2.10;;
10511;SDS011;5304;48.604;2.096;2022-09-20T06:48:41;8.07;;;3.10;;
10511;SDS011;5304;48.604;2.096;2022-09-20T06:51:26;5.60;;;2.37;;
10511;SDS011;5304;48.604;2.096;2022-09-20T06:54:13;2.27;;;1.90;;
10511;SDS011;5304;48.604;2.096;2022-09-20T06:57:02;7.53;;;2.50;;
10511;SDS011;5304;48.604;2.096;2022-09-20T06:59:49;6.00;;;2.67;;
10511;SDS011;5304;48.604;2.096;2022-09-20T07:02:33;5.33;;;2.93;;
10511;SDS011;5304;48.604;2.096;2022-09-20T07:05:18;4.73;;;2.50;;
10511;SDS011;5304;48.604;2.096;2022-09-20T07:08:04;5.43;;;2.77;;
10511;SDS011;5304;48.604;2.096;2022-09-20T07:10:49;7.00;;;3.13;;
10511;SDS011;5304;48.604;2.096;2022-09-20T07:13:34;8.40;;;3.47;;
10511;SDS011;5304;48.604;2.096;2022-09-20T07:16:19;6.90;;;3.37;;
10511;SDS011;5304;48.604;2.096;2022-09-20T07:19:04;6.63;;;3.63;;
10511;SDS011;5304;48.604;2.096;2022-09-20T07:21:49;7.90;;;3.63;;
10511;SDS011;5304;48.604;2.096;2022-09-20T07:24:33;5.33;;;3.10;;
10511;SDS011;5304;48.604;2.096;2022-09-20T07:27:18;6.53;;;3.27;;
10511;SDS011;5304;48.604;2.096;2022-09-20T07:30:04;9.10;;;4.23;;
10511;SDS011;5304;48.604;2.096;2022-09-20T07:32:50;8.63;;;4.37;;
10511;SDS011;5304;48.604;2.096;2022-09-20T07:35:35;6.77;;;4.30;;
10511;SDS011;5304;48.604;2.096;2022-09-20T07:38:22;5.40;;;3.97;;
10511;SDS011;5304;48.604;2.096;2022-09-20T07:41:08;6.37;;;3.70;;
10511;SDS011;5304;48.604;2.096;2022-09-20T07:43:53;5.10;;;3.63;;
10511;SDS011;5304;48.604;2.096;2022-09-20T07:46:58;6.03;;;3.00;;
10511;SDS011;5304;48.604;2.096;2022-09-20T07:49:43;5.30;;;3.10;;
10511;SDS011;5304;48.604;2.096;2022-09-20T07:52:28;8.83;;;2.80;;
10511;SDS011;5304;48.604;2.096;2022-09-20T07:55:12;8.33;;;2.73;;
10511;SDS011;5304;48.604;2.096;2022-09-20T07:57:57;8.20;;;3.30;;
10511;SDS011;5304;48.604;2.096;2022-09-20T08:00:41;7.60;;;2.70;;
10511;SDS011;5304;48.604;2.096;2022-09-20T08:03:25;12.57;;;3.97;;
10511;SDS011;5304;48.604;2.096;2022-09-20T08:06:13;5.97;;;2.90;;
10511;SDS011;5304;48.604;2.096;2022-09-20T08:08:59;7.60;;;2.60;;
10511;SDS011;5304;48.604;2.096;2022-09-20T08:11:43;5.10;;;2.53;;
10511;SDS011;5304;48.604;2.096;2022-09-20T08:14:28;7.53;;;2.30;;
10511;SDS011;5304;48.604;2.096;2022-09-20T08:17:13;5.20;;;2.63;;
10511;SDS011;5304;48.604;2.096;2022-09-20T08:19:59;7.87;;;2.30;;
10511;SDS011;5304;48.604;2.096;2022-09-20T08:22:43;5.60;;;2.00;;
10511;SDS011;5304;48.604;2.096;2022-09-20T08:25:28;3.33;;;1.80;;
10511;SDS011;5304;48.604;2.096;2022-09-20T08:28:12;4.67;;;1.60;;
10511;SDS011;5304;48.604;2.096;2022-09-20T08:31:03;2.57;;;1.90;;
10511;SDS011;5304;48.604;2.096;2022-09-20T08:33:53;7.70;;;2.40;;
10511;SDS011;5304;48.604;2.096;2022-09-20T08:36:39;5.77;;;2.20;;
10511;SDS011;5304;48.604;2.096;2022-09-20T08:39:27;2.10;;;1.90;;
10511;SDS011;5304;48.604;2.096;2022-09-20T08:42:23;5.10;;;2.50;;
10511;SDS011;5304;48.604;2.096;2022-09-20T08:45:17;4.93;;;2.13;;
10511;SDS011;5304;48.604;2.096;2022-09-20T08:48:05;4.20;;;2.07;;
10511;SDS011;5304;48.604;2.096;2022-09-20T08:50:52;4.17;;;2.30;;
10511;SDS011;5304;48.604;2.096;2022-09-20T08:53:39;5.83;;;2.20;;
10511;SDS011;5304;48.604;2.096;2022-09-20T08:56:30;5.00;;;1.90;;
10511;SDS011;5304;48.604;2.096;2022-09-20T08:59:21;4.17;;;1.87;;
10511;SDS011;5304;48.604;2.096;2022-09-20T09:02:15;5.37;;;1.77;;
10511;SDS011;5304;48.604;2.096;2022-09-20T09:05:01;4.90;;;1.90;;
10511;SDS011;5304;48.604;2.096;2022-09-20T09:07:49;3.53;;;1.70;;
10511;SDS011;5304;48.604;2.096;2022-09-20T09:10:37;3.60;;;1.80;;
10511;SDS011;5304;48.604;2.096;2022-09-20T09:13:33;5.87;;;1.70;;
10511;SDS011;5304;48.604;2.096;2022-09-20T09:16:26;2.13;;;1.40;;
10511;SDS011;5304;48.604;2.096;2022-09-20T09:19:29;6.83;;;2.10;;
10511;SDS011;5304;48.604;2.096;2022-09-20T09:25:37;6.17;;;1.63;;
10511;SDS011;5304;48.604;2.096;2022-09-20T09:28:23;3.67;;;1.60;;
10511;SDS011;5304;48.604;2.096;2022-09-20T09:31:18;2.57;;;1.63;;
10511;SDS011;5304;48.604;2.096;2022-09-20T09:34:30;4.60;;;1.90;;
10511;SDS011;5304;48.604;2.096;2022-09-20T09:37:27;3.77;;;1.53;;
10511;SDS011;5304;48.604;2.096;2022-09-20T09:40:17;3.40;;;1.77;;
10511;SDS011;5304;48.604;2.096;2022-09-20T09:43:02;7.13;;;1.97;;
10511;SDS011;5304;48.604;2.096;2022-09-20T09:45:46;3.87;;;1.73;;
10511;SDS011;5304;48.604;2.096;2022-09-20T09:48:31;5.23;;;1.53;;
10511;SDS011;5304;48.604;2.096;2022-09-20T09:51:16;4.83;;;1.63;;
10511;SDS011;5304;48.604;2.096;2022-09-20T09:54:03;2.97;;;1.70;;
10511;SDS011;5304;48.604;2.096;2022-09-20T09:56:53;3.70;;;1.67;;
10511;SDS011;5304;48.604;2.096;2022-09-20T10:02:31;6.10;;;1.60;;
10511;SDS011;5304;48.604;2.096;2022-09-20T10:11:48;3.00;;;1.57;;
10511;SDS011;5304;48.604;2.096;2022-09-20T10:17:48;3.73;;;1.40;;
10511;SDS011;5304;48.604;2.096;2022-09-20T10:20:41;4.90;;;1.47;;
10511;SDS011;5304;48.604;2.096;2022-09-20T10:23:33;3.60;;;1.67;;
10511;SDS011;5304;48.604;2.096;2022-09-20T10:38:56;5.37;;;1.60;;
10511;SDS011;5304;48.604;2.096;2022-09-20T10:41:53;5.00;;;1.67;;
10511;SDS011;5304;48.604;2.096;2022-09-20T10:45:29;3.53;;;1.40;;
10511;SDS011;5304;48.604;2.096;2022-09-20T10:51:50;2.80;;;1.80;;
10511;SDS011;5304;48.604;2.096;2022-09-20T11:03:41;2.33;;;1.40;;
10511;SDS011;5304;48.604;2.096;2022-09-20T11:06:39;7.23;;;1.90;;
10511;SDS011;5304;48.604;2.096;2022-09-20T11:09:30;2.77;;;1.30;;
10511;SDS011;5304;48.604;2.096;2022-09-20T11:12:39;3.20;;;1.27;;
10511;SDS011;5304;48.604;2.096;2022-09-20T11:15:33;5.77;;;1.30;;
10511;SDS011;5304;48.604;2.096;2022-09-20T11:18:34;3.77;;;1.47;;
10511;SDS011;5304;48.604;2.096;2022-09-20T11:24:24;3.90;;;1.40;;
10511;SDS011;5304;48.604;2.096;2022-09-20T11:27:25;2.83;;;1.20;;
10511;SDS011;5304;48.604;2.096;2022-09-20T11:30:16;6.03;;;1.57;;
10511;SDS011;5304;48.604;2.096;2022-09-20T11:33:20;2.47;;;1.30;;
10511;SDS011;5304;48.604;2.096;2022-09-20T11:36:14;5.13;;;1.87;;
10511;SDS011;5304;48.604;2.096;2022-09-20T11:39:12;3.00;;;1.40;;
10511;SDS011;5304;48.604;2.096;2022-09-20T11:42:04;4.43;;;1.30;;
10511;SDS011;5304;48.604;2.096;2022-09-20T11:44:56;3.00;;;1.50;;
10511;SDS011;5304;48.604;2.096;2022-09-20T11:47:42;3.37;;;1.10;;
10511;SDS011;5304;48.604;2.096;2022-09-20T11:53:48;3.77;;;1.33;;
10511;SDS011;5304;48.604;2.096;2022-09-20T11:56:48;3.70;;;1.20;;
10511;SDS011;5304;48.604;2.096;2022-09-20T11:59:39;2.23;;;1.00;;
10511;SDS011;5304;48.604;2.096;2022-09-20T12:05:34;2.07;;;1.20;;
10511;SDS011;5304;48.604;2.096;2022-09-20T12:08:23;1.53;;;0.90;;
10511;SDS011;5304;48.604;2.096;2022-09-20T12:11:12;3.90;;;1.10;;
10511;SDS011;5304;48.604;2.096;2022-09-20T12:14:00;1.37;;;1.00;;
10511;SDS011;5304;48.604;2.096;2022-09-20T12:16:49;3.10;;;1.20;;
10511;SDS011;5304;48.604;2.096;2022-09-20T12:22:26;4.17;;;1.37;;
10511;SDS011;5304;48.604;2.096;2022-09-20T12:28:18;3.80;;;1.30;;
10511;SDS011;5304;48.604;2.096;2022-09-20T12:39:49;6.00;;;1.17;;
10511;SDS011;5304;48.604;2.096;2022-09-20T12:42:35;2.13;;;1.30;;
10511;SDS011;5304;48.604;2.096;2022-09-20T12:45:19;1.93;;;1.10;;
10511;SDS011;5304;48.604;2.096;2022-09-20T12:48:04;3.50;;;1.00;;
10511;SDS011;5304;48.604;2.096;2022-09-20T12:54:28;2.80;;;1.00;;
10511;SDS011;5304;48.604;2.096;2022-09-20T12:57:17;2.93;;;1.27;;
10511;SDS011;5304;48.604;2.096;2022-09-20T13:00:26;3.20;;;1.20;;
10511;SDS011;5304;48.604;2.096;2022-09-20T13:09:02;2.67;;;1.07;;
10511;SDS011;5304;48.604;2.096;2022-09-20T13:11:52;5.23;;;1.13;;
10511;SDS011;5304;48.604;2.096;2022-09-20T13:14:38;4.27;;;1.20;;
10511;SDS011;5304;48.604;2.096;2022-09-20T13:17:25;3.23;;;1.43;;
10511;SDS011;5304;48.604;2.096;2022-09-20T13:20:18;1.77;;;1.10;;
10511;SDS011;5304;48.604;2.096;2022-09-20T13:23:08;3.37;;;1.20;;
10511;SDS011;5304;48.604;2.096;2022-09-20T13:26:01;3.73;;;1.03;;
10511;SDS011;5304;48.604;2.096;2022-09-20T13:28:50;3.37;;;1.20;;
10511;SDS011;5304;48.604;2.096;2022-09-20T13:31:37;2.37;;;1.00;;
10511;SDS011;5304;48.604;2.096;2022-09-20T13:34:23;3.77;;;1.40;;
10511;SDS011;5304;48.604;2.096;2022-09-20T13:37:14;4.00;;;1.33;;
10511;SDS011;5304;48.604;2.096;2022-09-20T13:40:04;4.03;;;1.20;;
10511;SDS011;5304;48.604;2.096;2022-09-20T13:42:50;3.20;;;1.20;;
10511;SDS011;5304;48.604;2.096;2022-09-20T13:45:39;3.50;;;1.20;;
10511;SDS011;5304;48.604;2.096;2022-09-20T13:48:26;4.20;;;1.13;;
10511;SDS011;5304;48.604;2.096;2022-09-20T13:51:19;5.87;;;1.50;;
10511;SDS011;5304;48.604;2.096;2022-09-20T13:54:27;2.73;;;1.30;;
10511;SDS011;5304;48.604;2.096;2022-09-20T13:57:16;5.57;;;1.40;;
10511;SDS011;5304;48.604;2.096;2022-09-20T14:00:05;1.93;;;1.13;;
10511;SDS011;5304;48.604;2.096;2022-09-20T14:02:52;2.07;;;1.30;;
10511;SDS011;5304;48.604;2.096;2022-09-20T14:05:43;3.67;;;1.40;;
10511;SDS011;5304;48.604;2.096;2022-09-20T14:11:30;5.63;;;1.60;;
10511;SDS011;5304;48.604;2.096;2022-09-20T14:14:16;3.37;;;1.10;;
10511;SDS011;5304;48.604;2.096;2022-09-20T14:17:04;2.03;;;1.17;;
10511;SDS011;5304;48.604;2.096;2022-09-20T14:19:52;2.27;;;1.23;;
10511;SDS011;5304;48.604;2.096;2022-09-20T14:22:37;2.53;;;1.20;;
10511;SDS011;5304;48.604;2.096;2022-09-20T14:25:23;2.47;;;1.00;;
10511;SDS011;5304;48.604;2.096;2022-09-20T14:28:18;2.70;;;1.40;;
10511;SDS011;5304;48.604;2.096;2022-09-20T14:31:05;3.37;;;1.20;;
10511;SDS011;5304;48.604;2.096;2022-09-20T14:34:00;3.77;;;1.20;;
10511;SDS011;5304;48.604;2.096;2022-09-20T14:36:47;2.50;;;1.20;;
10511;SDS011;5304;48.604;2.096;2022-09-20T14:39:33;2.97;;;1.10;;
10511;SDS011;5304;48.604;2.096;2022-09-20T14:42:29;3.37;;;1.23;;
10511;SDS011;5304;48.604;2.096;2022-09-20T14:45:22;2.47;;;1.47;;
10511;SDS011;5304;48.604;2.096;2022-09-20T14:56:48;5.33;;;1.37;;
10511;SDS011;5304;48.604;2.096;2022-09-20T14:59:36;2.13;;;1.10;;
10511;SDS011;5304;48.604;2.096;2022-09-20T15:02:25;4.30;;;1.40;;
10511;SDS011;5304;48.604;2.096;2022-09-20T15:05:17;1.90;;;1.40;;
10511;SDS011;5304;48.604;2.096;2022-09-20T15:08:09;3.57;;;1.40;;
10511;SDS011;5304;48.604;2.096;2022-09-20T15:10:58;3.87;;;1.50;;
10511;SDS011;5304;48.604;2.096;2022-09-20T15:13:42;4.50;;;1.30;;
10511;SDS011;5304;48.604;2.096;2022-09-20T15:16:27;4.50;;;1.50;;
10511;SDS011;5304;48.604;2.096;2022-09-20T15:19:12;3.10;;;1.50;;
10511;SDS011;5304;48.604;2.096;2022-09-20T15:21:57;3.17;;;1.57;;
10511;SDS011;5304;48.604;2.096;2022-09-20T15:24:43;2.00;;;1.40;;
10511;SDS011;5304;48.604;2.096;2022-09-20T15:27:27;2.37;;;1.40;;
10511;SDS011;5304;48.604;2.096;2022-09-20T15:30:12;3.03;;;1.50;;
10511;SDS011;5304;48.604;2.096;2022-09-20T15:32:59;2.37;;;1.37;;
10511;SDS011;5304;48.604;2.096;2022-09-20T15:35:43;4.13;;;1.40;;
10511;SDS011;5304;48.604;2.096;2022-09-20T15:38:28;2.63;;;1.30;;
10511;SDS011;5304;48.604;2.096;2022-09-20T15:41:13;1.93;;;1.37;;
10511;SDS011;5304;48.604;2.096;2022-09-20T15:43:58;4.40;;;1.47;;
10511;SDS011;5304;48.604;2.096;2022-09-20T15:46:43;4.00;;;1.30;;
10511;SDS011;5304;48.604;2.096;2022-09-20T15:49:28;4.20;;;1.70;;
10511;SDS011;5304;48.604;2.096;2022-09-20T15:52:13;1.80;;;1.50;;
10511;SDS011;5304;48.604;2.096;2022-09-20T15:54:58;2.30;;;1.43;;
10511;SDS011;5304;48.604;2.096;2022-09-20T15:57:43;2.17;;;1.40;;
10511;SDS011;5304;48.604;2.096;2022-09-20T16:00:28;2.40;;;1.50;;
10511;SDS011;5304;48.604;2.096;2022-09-20T16:03:13;2.30;;;1.30;;
10511;SDS011;5304;48.604;2.096;2022-09-20T16:05:58;2.53;;;1.40;;
10511;SDS011;5304;48.604;2.096;2022-09-20T16:08:44;3.90;;;1.50;;
10511;SDS011;5304;48.604;2.096;2022-09-20T16:11:29;2.20;;;1.50;;
10511;SDS011;5304;48.604;2.096;2022-09-20T16:14:14;1.63;;;1.27;;
10511;SDS011;5304;48.604;2.096;2022-09-20T16:16:58;1.77;;;1.20;;
10511;SDS011;5304;48.604;2.096;2022-09-20T16:19:43;1.50;;;1.40;;
10511;SDS011;5304;48.604;2.096;2022-09-20T16:22:31;3.90;;;1.50;;
10511;SDS011;5304;48.604;2.096;2022-09-20T16:25:17;2.63;;;1.40;;
10511;SDS011;5304;48.604;2.096;2022-09-20T16:28:03;1.63;;;1.30;;
10511;SDS011;5304;48.604;2.096;2022-09-20T16:30:57;3.87;;;1.50;;
10511;SDS011;5304;48.604;2.096;2022-09-20T16:33:42;1.50;;;1.40;;
10511;SDS011;5304;48.604;2.096;2022-09-20T16:36:27;2.50;;;1.53;;
10511;SDS011;5304;48.604;2.096;2022-09-20T16:39:12;8.73;;;1.80;;
10511;SDS011;5304;48.604;2.096;2022-09-20T16:41:58;1.37;;;1.27;;
10511;SDS011;5304;48.604;2.096;2022-09-20T16:44:47;1.90;;;1.33;;
10511;SDS011;5304;48.604;2.096;2022-09-20T16:47:32;1.40;;;1.30;;
10511;SDS011;5304;48.604;2.096;2022-09-20T16:50:17;3.03;;;1.90;;
10511;SDS011;5304;48.604;2.096;2022-09-20T16:53:02;2.07;;;1.30;;
10511;SDS011;5304;48.604;2.096;2022-09-20T16:55:47;3.53;;;1.70;;
10511;SDS011;5304;48.604;2.096;2022-09-20T16:58:32;5.00;;;1.20;;
10511;SDS011;5304;48.604;2.096;2022-09-20T17:01:21;3.90;;;1.80;;
10511;SDS011;5304;48.604;2.096;2022-09-20T17:04:07;4.33;;;1.53;;
10511;SDS011;5304;48.604;2.096;2022-09-20T17:06:52;4.70;;;1.67;;
10511;SDS011;5304;48.604;2.096;2022-09-20T17:09:37;5.47;;;1.50;;
10511;SDS011;5304;48.604;2.096;2022-09-20T17:12:22;2.30;;;1.60;;
10511;SDS011;5304;48.604;2.096;2022-09-20T17:15:11;2.13;;;1.50;;
10511;SDS011;5304;48.604;2.096;2022-09-20T17:17:56;5.17;;;1.73;;
10511;SDS011;5304;48.604;2.096;2022-09-20T17:20:41;4.27;;;1.77;;
10511;SDS011;5304;48.604;2.096;2022-09-20T17:23:26;1.50;;;1.40;;
10511;SDS011;5304;48.604;2.096;2022-09-20T17:26:12;4.43;;;1.60;;
10511;SDS011;5304;48.604;2.096;2022-09-20T17:29:01;2.83;;;1.63;;
10511;SDS011;5304;48.604;2.096;2022-09-20T17:31:48;3.27;;;1.43;;
10511;SDS011;5304;48.604;2.096;2022-09-20T17:34:35;5.00;;;1.40;;
10511;SDS011;5304;48.604;2.096;2022-09-20T17:37:20;2.23;;;1.87;;
10511;SDS011;5304;48.604;2.096;2022-09-20T17:40:04;2.57;;;1.53;;
10511;SDS011;5304;48.604;2.096;2022-09-20T17:42:49;3.07;;;1.50;;
10511;SDS011;5304;48.604;2.096;2022-09-20T17:45:34;3.40;;;1.60;;
10511;SDS011;5304;48.604;2.096;2022-09-20T17:48:18;1.67;;;1.50;;
10511;SDS011;5304;48.604;2.096;2022-09-20T17:51:05;2.70;;;1.50;;
10511;SDS011;5304;48.604;2.096;2022-09-20T17:53:51;3.97;;;1.70;;
10511;SDS011;5304;48.604;2.096;2022-09-20T17:56:36;6.00;;;1.90;;
10511;SDS011;5304;48.604;2.096;2022-09-20T17:59:21;3.47;;;1.50;;
10511;SDS011;5304;48.604;2.096;2022-09-20T18:02:05;3.53;;;1.70;;
10511;SDS011;5304;48.604;2.096;2022-09-20T18:04:51;2.60;;;1.50;;
10511;SDS011;5304;48.604;2.096;2022-09-20T18:07:36;3.33;;;1.73;;
10511;SDS011;5304;48.604;2.096;2022-09-20T18:10:20;1.93;;;1.70;;
10511;SDS011;5304;48.604;2.096;2022-09-20T18:13:04;3.77;;;2.27;;
10511;SDS011;5304;48.604;2.096;2022-09-20T18:15:49;4.93;;;1.90;;
10511;SDS011;5304;48.604;2.096;2022-09-20T18:18:34;3.97;;;1.77;;
10511;SDS011;5304;48.604;2.096;2022-09-20T18:21:19;3.90;;;1.70;;
10511;SDS011;5304;48.604;2.096;2022-09-20T18:24:06;2.10;;;1.57;;
10511;SDS011;5304;48.604;2.096;2022-09-20T18:26:52;4.57;;;2.30;;
10511;SDS011;5304;48.604;2.096;2022-09-20T18:29:37;5.57;;;2.03;;
10511;SDS011;5304;48.604;2.096;2022-09-20T18:32:21;4.40;;;1.90;;
10511;SDS011;5304;48.604;2.096;2022-09-20T18:35:07;2.73;;;1.70;;
10511;SDS011;5304;48.604;2.096;2022-09-20T18:37:51;3.77;;;2.13;;
10511;SDS011;5304;48.604;2.096;2022-09-20T18:40:36;3.53;;;2.00;;
10511;SDS011;5304;48.604;2.096;2022-09-20T18:43:21;3.23;;;2.17;;
10511;SDS011;5304;48.604;2.096;2022-09-20T18:46:06;4.93;;;2.10;;
10511;SDS011;5304;48.604;2.096;2022-09-20T18:48:51;2.53;;;1.70;;
10511;SDS011;5304;48.604;2.096;2022-09-20T18:51:36;4.17;;;1.97;;
10511;SDS011;5304;48.604;2.096;2022-09-20T18:54:21;2.30;;;2.03;;
10511;SDS011;5304;48.604;2.096;2022-09-20T18:57:07;4.27;;;2.40;;
10511;SDS011;5304;48.604;2.096;2022-09-20T18:59:53;2.90;;;2.00;;
10511;SDS011;5304;48.604;2.096;2022-09-20T19:03:00;5.00;;;2.10;;
10511;SDS011;5304;48.604;2.096;2022-09-20T19:05:53;3.27;;;2.07;;
10511;SDS011;5304;48.604;2.096;2022-09-20T19:08:43;5.83;;;1.83;;
10511;SDS011;5304;48.604;2.096;2022-09-20T19:11:59;2.30;;;1.97;;
10511;SDS011;5304;48.604;2.096;2022-09-20T19:20:45;5.00;;;2.40;;
10511;SDS011;5304;48.604;2.096;2022-09-20T19:27:24;5.53;;;2.47;;
10511;SDS011;5304;48.604;2.096;2022-09-20T19:30:13;5.53;;;2.40;;
10511;SDS011;5304;48.604;2.096;2022-09-20T19:32:58;4.97;;;2.60;;
10511;SDS011;5304;48.604;2.096;2022-09-20T19:35:48;3.60;;;2.80;;
10511;SDS011;5304;48.604;2.096;2022-09-20T19:38:36;5.07;;;2.80;;
10511;SDS011;5304;48.604;2.096;2022-09-20T19:47:44;3.10;;;2.57;;
10511;SDS011;5304;48.604;2.096;2022-09-20T19:50:48;4.30;;;3.03;;
10511;SDS011;5304;48.604;2.096;2022-09-20T19:53:36;7.10;;;3.00;;
10511;SDS011;5304;48.604;2.096;2022-09-20T19:56:23;3.40;;;2.90;;
10511;SDS011;5304;48.604;2.096;2022-09-20T19:59:12;3.10;;;2.73;;
10511;SDS011;5304;48.604;2.096;2022-09-20T20:01:58;4.20;;;2.40;;
10511;SDS011;5304;48.604;2.096;2022-09-20T20:04:43;3.40;;;3.10;;
10511;SDS011;5304;48.604;2.096;2022-09-20T20:07:28;4.63;;;3.00;;
10511;SDS011;5304;48.604;2.096;2022-09-20T20:10:29;5.00;;;3.30;;
10511;SDS011;5304;48.604;2.096;2022-09-20T20:13:24;4.00;;;3.17;;
10511;SDS011;5304;48.604;2.096;2022-09-20T20:19:52;4.43;;;3.43;;
10511;SDS011;5304;48.604;2.096;2022-09-20T20:25:33;8.73;;;3.87;;
10511;SDS011;5304;48.604;2.096;2022-09-20T20:28:25;6.20;;;3.20;;
10511;SDS011;5304;48.604;2.096;2022-09-20T20:31:10;5.90;;;3.33;;
10511;SDS011;5304;48.604;2.096;2022-09-20T20:33:55;6.97;;;3.47;;
10511;SDS011;5304;48.604;2.096;2022-09-20T20:36:39;4.43;;;3.20;;
10511;SDS011;5304;48.604;2.096;2022-09-20T20:39:24;5.53;;;3.10;;
10511;SDS011;5304;48.604;2.096;2022-09-20T20:42:12;5.30;;;3.60;;
10511;SDS011;5304;48.604;2.096;2022-09-20T20:44:57;4.40;;;3.47;;
10511;SDS011;5304;48.604;2.096;2022-09-20T20:47:42;3.97;;;3.30;;
10511;SDS011;5304;48.604;2.096;2022-09-20T20:50:26;7.23;;;3.93;;
10511;SDS011;5304;48.604;2.096;2022-09-20T20:53:11;4.87;;;4.13;;
10511;SDS011;5304;48.604;2.096;2022-09-20T20:56:02;16.47;;;9.17;;
10511;SDS011;5304;48.604;2.096;2022-09-20T20:58:51;5.70;;;4.00;;
10511;SDS011;5304;48.604;2.096;2022-09-20T21:01:36;7.47;;;3.30;;
10511;SDS011;5304;48.604;2.096;2022-09-20T21:04:25;4.60;;;3.53;;
10511;SDS011;5304;48.604;2.096;2022-09-20T21:07:11;6.30;;;4.27;;
10511;SDS011;5304;48.604;2.096;2022-09-20T21:09:56;6.57;;;4.63;;
10511;SDS011;5304;48.604;2.096;2022-09-20T21:12:41;5.70;;;4.73;;
10511;SDS011;5304;48.604;2.096;2022-09-20T21:15:25;8.40;;;4.80;;
10511;SDS011;5304;48.604;2.096;2022-09-20T21:18:10;5.23;;;4.73;;
10511;SDS011;5304;48.604;2.096;2022-09-20T21:20:54;8.30;;;5.80;;
10511;SDS011;5304;48.604;2.096;2022-09-20T21:23:38;4.53;;;4.13;;
10511;SDS011;5304;48.604;2.096;2022-09-20T21:26:24;6.23;;;5.13;;
10511;SDS011;5304;48.604;2.096;2022-09-20T21:29:10;5.80;;;4.43;;
10511;SDS011;5304;48.604;2.096;2022-09-20T21:31:56;6.20;;;4.90;;
10511;SDS011;5304;48.604;2.096;2022-09-20T21:34:40;5.77;;;4.53;;
10511;SDS011;5304;48.604;2.096;2022-09-20T21:37:25;7.37;;;5.17;;
10511;SDS011;5304;48.604;2.096;2022-09-20T21:40:09;6.07;;;4.47;;
10511;SDS011;5304;48.604;2.096;2022-09-20T21:42:54;7.97;;;5.13;;
10511;SDS011;5304;48.604;2.096;2022-09-20T21:45:38;7.07;;;5.10;;
10511;SDS011;5304;48.604;2.096;2022-09-20T21:48:23;7.27;;;5.40;;
10511;SDS011;5304;48.604;2.096;2022-09-20T21:51:10;7.13;;;5.67;;
10511;SDS011;5304;48.604;2.096;2022-09-20T21:53:57;8.63;;;5.97;;
10511;SDS011;5304;48.604;2.096;2022-09-20T21:56:43;6.73;;;5.03;;
10511;SDS011;5304;48.604;2.096;2022-09-20T21:59:28;7.43;;;5.17;;
10511;SDS011;5304;48.604;2.096;2022-09-20T22:02:12;7.63;;;5.27;;
10511;SDS011;5304;48.604;2.096;2022-09-20T22:04:58;5.60;;;4.57;;
10511;SDS011;5304;48.604;2.096;2022-09-20T22:07:42;7.27;;;5.57;;
10511;SDS011;5304;48.604;2.096;2022-09-20T22:10:27;5.47;;;4.70;;
10511;SDS011;5304;48.604;2.096;2022-09-20T22:13:11;5.67;;;4.90;;
10511;SDS011;5304;48.604;2.096;2022-09-20T22:16:06;6.43;;;4.63;;
10511;SDS011;5304;48.604;2.096;2022-09-20T22:19:10;5.27;;;4.10;;
10511;SDS011;5304;48.604;2.096;2022-09-20T22:21:56;4.53;;;4.13;;
10511;SDS011;5304;48.604;2.096;2022-09-20T22:24:41;5.47;;;4.37;;
10511;SDS011;5304;48.604;2.096;2022-09-20T22:27:26;5.67;;;4.37;;
10511;SDS011;5304;48.604;2.096;2022-09-20T22:30:10;6.73;;;4.87;;
10511;SDS011;5304;48.604;2.096;2022-09-20T22:32:55;6.87;;;4.33;;
10511;SDS011;5304;48.604;2.096;2022-09-20T22:35:42;5.40;;;4.37;;